Isabella, Tennessee
Current Conditions -  °F | °C
As of 11:55 PM on Saturday 20 Dec 2014 (Local Time) from KRZR Reporting Station
Broken Clouds Broken Clouds  
Wind Chill: -1°   Ceiling: 4200
Heat Index: -1°   Visibility: 5mi
Dew Point: -2°   Wind: 0mph
Humidity: 93%   Direction: NA
Pressure: 30.22"   Gusts: NA
Location:  35.0276°N, 84.3551°W
Report Text: KRZR 210455Z AUTO 00000KT 5SM BKN042 M01/M02 A3022 RMK
Loading
Personal Weather Stations






























Interactive Weather Map New forecast layout! Learn more

10-Day Weather Forecast

Advertisements
Track Severe Weather on mobile